sensor_id;sensor_type;location;lat;lon;timestamp;P1;durP1;ratioP1;P2;durP2;ratioP2
36829;SDS011;22767;47.328;9.640;2023-01-08T00:00:41;6.13;;;4.57;;
36829;SDS011;22767;47.328;9.640;2023-01-08T00:03:08;7.72;;;5.78;;
36829;SDS011;22767;47.328;9.640;2023-01-08T00:05:34;8.05;;;5.30;;
36829;SDS011;22767;47.328;9.640;2023-01-08T00:08:00;9.20;;;4.60;;
36829;SDS011;22767;47.328;9.640;2023-01-08T00:10:26;9.52;;;5.53;;
36829;SDS011;22767;47.328;9.640;2023-01-08T00:12:54;6.10;;;4.72;;
36829;SDS011;22767;47.328;9.640;2023-01-08T00:15:20;7.85;;;4.50;;
36829;SDS011;22767;47.328;9.640;2023-01-08T00:17:46;6.82;;;4.63;;
36829;SDS011;22767;47.328;9.640;2023-01-08T00:20:13;7.13;;;4.13;;
36829;SDS011;22767;47.328;9.640;2023-01-08T00:22:39;7.35;;;4.72;;
36829;SDS011;22767;47.328;9.640;2023-01-08T00:25:05;7.50;;;5.03;;
36829;SDS011;22767;47.328;9.640;2023-01-08T00:27:35;8.50;;;5.43;;
36829;SDS011;22767;47.328;9.640;2023-01-08T00:30:01;7.20;;;5.05;;
36829;SDS011;22767;47.328;9.640;2023-01-08T00:32:27;8.32;;;5.72;;
36829;SDS011;22767;47.328;9.640;2023-01-08T00:34:53;9.18;;;5.70;;
36829;SDS011;22767;47.328;9.640;2023-01-08T00:37:20;7.75;;;5.10;;
36829;SDS011;22767;47.328;9.640;2023-01-08T00:39:46;9.20;;;4.93;;
36829;SDS011;22767;47.328;9.640;2023-01-08T00:42:12;7.50;;;5.60;;
36829;SDS011;22767;47.328;9.640;2023-01-08T00:44:38;8.93;;;6.15;;
36829;SDS011;22767;47.328;9.640;2023-01-08T00:47:05;9.13;;;5.80;;
36829;SDS011;22767;47.328;9.640;2023-01-08T00:49:31;8.18;;;5.18;;
36829;SDS011;22767;47.328;9.640;2023-01-08T00:51:57;10.68;;;6.63;;
36829;SDS011;22767;47.328;9.640;2023-01-08T00:54:23;8.85;;;5.93;;
36829;SDS011;22767;47.328;9.640;2023-01-08T00:56:49;10.25;;;6.60;;
36829;SDS011;22767;47.328;9.640;2023-01-08T00:59:16;10.52;;;7.30;;
36829;SDS011;22767;47.328;9.640;2023-01-08T01:01:42;11.02;;;6.13;;
36829;SDS011;22767;47.328;9.640;2023-01-08T01:04:08;11.20;;;6.57;;
36829;SDS011;22767;47.328;9.640;2023-01-08T01:06:34;12.05;;;7.80;;
36829;SDS011;22767;47.328;9.640;2023-01-08T01:09:00;12.57;;;7.55;;
36829;SDS011;22767;47.328;9.640;2023-01-08T01:11:27;11.10;;;7.30;;
36829;SDS011;22767;47.328;9.640;2023-01-08T01:13:54;11.52;;;7.28;;
36829;SDS011;22767;47.328;9.640;2023-01-08T01:16:21;10.93;;;7.75;;
36829;SDS011;22767;47.328;9.640;2023-01-08T01:18:47;12.40;;;7.65;;
36829;SDS011;22767;47.328;9.640;2023-01-08T01:21:21;10.82;;;7.60;;
36829;SDS011;22767;47.328;9.640;2023-01-08T01:23:47;15.10;;;7.80;;
36829;SDS011;22767;47.328;9.640;2023-01-08T01:26:17;10.95;;;7.25;;
36829;SDS011;22767;47.328;9.640;2023-01-08T01:28:45;11.07;;;7.25;;
36829;SDS011;22767;47.328;9.640;2023-01-08T01:31:12;10.93;;;7.10;;
36829;SDS011;22767;47.328;9.640;2023-01-08T01:33:42;11.23;;;7.07;;
36829;SDS011;22767;47.328;9.640;2023-01-08T01:36:08;13.80;;;7.75;;
36829;SDS011;22767;47.328;9.640;2023-01-08T01:38:36;12.40;;;7.18;;
36829;SDS011;22767;47.328;9.640;2023-01-08T01:41:02;11.35;;;7.25;;
36829;SDS011;22767;47.328;9.640;2023-01-08T01:43:35;12.73;;;7.35;;
36829;SDS011;22767;47.328;9.640;2023-01-08T01:46:02;11.02;;;7.45;;
36829;SDS011;22767;47.328;9.640;2023-01-08T01:48:28;14.52;;;8.35;;
36829;SDS011;22767;47.328;9.640;2023-01-08T01:50:54;13.75;;;7.45;;
36829;SDS011;22767;47.328;9.640;2023-01-08T01:53:22;12.02;;;8.10;;
36829;SDS011;22767;47.328;9.640;2023-01-08T01:55:49;10.57;;;7.90;;
36829;SDS011;22767;47.328;9.640;2023-01-08T01:58:16;12.15;;;8.55;;
36829;SDS011;22767;47.328;9.640;2023-01-08T02:00:45;12.15;;;7.80;;
36829;SDS011;22767;47.328;9.640;2023-01-08T02:03:12;12.07;;;7.90;;
36829;SDS011;22767;47.328;9.640;2023-01-08T02:08:35;11.77;;;7.28;;
36829;SDS011;22767;47.328;9.640;2023-01-08T02:11:14;8.80;;;7.10;;
36829;SDS011;22767;47.328;9.640;2023-01-08T02:13:43;10.88;;;7.45;;
36829;SDS011;22767;47.328;9.640;2023-01-08T02:18:42;11.00;;;7.22;;
36829;SDS011;22767;47.328;9.640;2023-01-08T02:21:10;8.55;;;5.78;;
36829;SDS011;22767;47.328;9.640;2023-01-08T02:26:29;9.10;;;6.43;;
36829;SDS011;22767;47.328;9.640;2023-01-08T02:29:06;10.38;;;5.75;;
36829;SDS011;22767;47.328;9.640;2023-01-08T02:31:33;7.57;;;5.50;;
36829;SDS011;22767;47.328;9.640;2023-01-08T02:34:00;7.95;;;5.28;;
36829;SDS011;22767;47.328;9.640;2023-01-08T02:36:36;9.80;;;5.50;;
36829;SDS011;22767;47.328;9.640;2023-01-08T02:39:07;7.22;;;4.93;;
36829;SDS011;22767;47.328;9.640;2023-01-08T02:41:56;7.47;;;5.18;;
36829;SDS011;22767;47.328;9.640;2023-01-08T02:44:21;6.95;;;5.05;;
36829;SDS011;22767;47.328;9.640;2023-01-08T02:46:50;7.78;;;4.40;;
36829;SDS011;22767;47.328;9.640;2023-01-08T02:49:17;6.90;;;4.70;;
36829;SDS011;22767;47.328;9.640;2023-01-08T02:51:46;5.68;;;4.32;;
36829;SDS011;22767;47.328;9.640;2023-01-08T02:54:15;7.22;;;4.72;;
36829;SDS011;22767;47.328;9.640;2023-01-08T02:56:43;7.43;;;4.85;;
36829;SDS011;22767;47.328;9.640;2023-01-08T02:59:12;8.30;;;4.93;;
36829;SDS011;22767;47.328;9.640;2023-01-08T03:01:39;6.78;;;4.82;;
36829;SDS011;22767;47.328;9.640;2023-01-08T03:04:07;7.10;;;4.88;;
36829;SDS011;22767;47.328;9.640;2023-01-08T03:06:34;6.70;;;5.00;;
36829;SDS011;22767;47.328;9.640;2023-01-08T03:09:01;5.47;;;4.28;;
36829;SDS011;22767;47.328;9.640;2023-01-08T03:11:29;10.30;;;4.93;;
36829;SDS011;22767;47.328;9.640;2023-01-08T03:14:15;8.45;;;5.03;;
36829;SDS011;22767;47.328;9.640;2023-01-08T03:16:44;6.97;;;4.78;;
36829;SDS011;22767;47.328;9.640;2023-01-08T03:19:20;7.63;;;4.95;;
36829;SDS011;22767;47.328;9.640;2023-01-08T03:21:48;7.47;;;4.68;;
36829;SDS011;22767;47.328;9.640;2023-01-08T03:24:16;6.07;;;4.82;;
36829;SDS011;22767;47.328;9.640;2023-01-08T03:26:42;8.18;;;4.70;;
36829;SDS011;22767;47.328;9.640;2023-01-08T03:29:10;6.07;;;4.50;;
36829;SDS011;22767;47.328;9.640;2023-01-08T03:31:38;7.00;;;4.53;;
36829;SDS011;22767;47.328;9.640;2023-01-08T03:34:05;6.85;;;4.80;;
36829;SDS011;22767;47.328;9.640;2023-01-08T03:36:32;7.20;;;4.45;;
36829;SDS011;22767;47.328;9.640;2023-01-08T03:39:09;6.15;;;4.57;;
36829;SDS011;22767;47.328;9.640;2023-01-08T03:41:37;7.22;;;4.22;;
36829;SDS011;22767;47.328;9.640;2023-01-08T03:44:03;7.72;;;5.00;;
36829;SDS011;22767;47.328;9.640;2023-01-08T03:46:33;7.28;;;5.00;;
36829;SDS011;22767;47.328;9.640;2023-01-08T03:49:00;5.68;;;4.60;;
36829;SDS011;22767;47.328;9.640;2023-01-08T03:51:27;8.25;;;4.93;;
36829;SDS011;22767;47.328;9.640;2023-01-08T03:53:53;6.50;;;4.57;;
36829;SDS011;22767;47.328;9.640;2023-01-08T03:56:22;7.88;;;4.63;;
36829;SDS011;22767;47.328;9.640;2023-01-08T03:58:48;10.18;;;5.45;;
36829;SDS011;22767;47.328;9.640;2023-01-08T04:01:14;7.95;;;5.53;;
36829;SDS011;22767;47.328;9.640;2023-01-08T04:03:40;7.82;;;5.10;;
36829;SDS011;22767;47.328;9.640;2023-01-08T04:06:07;8.18;;;5.00;;
36829;SDS011;22767;47.328;9.640;2023-01-08T04:08:33;6.32;;;5.30;;
36829;SDS011;22767;47.328;9.640;2023-01-08T04:10:59;6.30;;;4.93;;
36829;SDS011;22767;47.328;9.640;2023-01-08T04:13:25;6.65;;;4.80;;
36829;SDS011;22767;47.328;9.640;2023-01-08T04:15:51;7.53;;;5.18;;
36829;SDS011;22767;47.328;9.640;2023-01-08T04:18:17;7.00;;;5.05;;
36829;SDS011;22767;47.328;9.640;2023-01-08T04:20:44;6.75;;;4.72;;
36829;SDS011;22767;47.328;9.640;2023-01-08T04:23:10;5.97;;;4.18;;
36829;SDS011;22767;47.328;9.640;2023-01-08T04:25:37;6.65;;;4.28;;
36829;SDS011;22767;47.328;9.640;2023-01-08T04:28:03;6.90;;;4.10;;
36829;SDS011;22767;47.328;9.640;2023-01-08T04:30:29;5.97;;;4.13;;
36829;SDS011;22767;47.328;9.640;2023-01-08T04:32:55;4.93;;;3.70;;
36829;SDS011;22767;47.328;9.640;2023-01-08T04:35:21;6.68;;;3.70;;
36829;SDS011;22767;47.328;9.640;2023-01-08T04:37:48;5.38;;;3.88;;
36829;SDS011;22767;47.328;9.640;2023-01-08T04:40:14;5.13;;;2.92;;
36829;SDS011;22767;47.328;9.640;2023-01-08T04:42:40;4.40;;;3.47;;
36829;SDS011;22767;47.328;9.640;2023-01-08T04:45:06;4.07;;;2.90;;
36829;SDS011;22767;47.328;9.640;2023-01-08T04:47:32;6.93;;;3.55;;
36829;SDS011;22767;47.328;9.640;2023-01-08T04:49:58;6.40;;;3.47;;
36829;SDS011;22767;47.328;9.640;2023-01-08T04:52:26;4.35;;;3.13;;
36829;SDS011;22767;47.328;9.640;2023-01-08T04:54:52;3.95;;;3.00;;
36829;SDS011;22767;47.328;9.640;2023-01-08T04:57:18;4.32;;;3.55;;
36829;SDS011;22767;47.328;9.640;2023-01-08T04:59:44;4.70;;;3.50;;
36829;SDS011;22767;47.328;9.640;2023-01-08T05:02:10;4.63;;;3.88;;
36829;SDS011;22767;47.328;9.640;2023-01-08T05:04:36;5.28;;;4.00;;
36829;SDS011;22767;47.328;9.640;2023-01-08T05:07:03;5.47;;;3.95;;
36829;SDS011;22767;47.328;9.640;2023-01-08T05:09:29;6.00;;;3.63;;
36829;SDS011;22767;47.328;9.640;2023-01-08T05:11:55;5.57;;;3.90;;
36829;SDS011;22767;47.328;9.640;2023-01-08T05:14:21;6.82;;;4.15;;
36829;SDS011;22767;47.328;9.640;2023-01-08T05:16:47;8.90;;;4.75;;
36829;SDS011;22767;47.328;9.640;2023-01-08T05:19:14;6.95;;;4.85;;
36829;SDS011;22767;47.328;9.640;2023-01-08T05:21:40;7.05;;;4.50;;
36829;SDS011;22767;47.328;9.640;2023-01-08T05:24:06;7.35;;;4.93;;
36829;SDS011;22767;47.328;9.640;2023-01-08T05:26:33;7.05;;;5.07;;
36829;SDS011;22767;47.328;9.640;2023-01-08T05:28:59;7.55;;;4.65;;
36829;SDS011;22767;47.328;9.640;2023-01-08T05:31:26;6.10;;;4.63;;
36829;SDS011;22767;47.328;9.640;2023-01-08T05:33:52;7.18;;;5.20;;
36829;SDS011;22767;47.328;9.640;2023-01-08T05:36:18;8.15;;;4.70;;
36829;SDS011;22767;47.328;9.640;2023-01-08T05:38:44;6.78;;;4.65;;
36829;SDS011;22767;47.328;9.640;2023-01-08T05:41:11;8.88;;;5.57;;
36829;SDS011;22767;47.328;9.640;2023-01-08T05:43:37;6.28;;;4.68;;
36829;SDS011;22767;47.328;9.640;2023-01-08T05:46:03;7.07;;;5.00;;
36829;SDS011;22767;47.328;9.640;2023-01-08T05:48:31;10.77;;;4.90;;
36829;SDS011;22767;47.328;9.640;2023-01-08T05:50:57;6.60;;;4.95;;
36829;SDS011;22767;47.328;9.640;2023-01-08T05:53:23;6.75;;;5.25;;
36829;SDS011;22767;47.328;9.640;2023-01-08T05:55:49;8.30;;;5.40;;
36829;SDS011;22767;47.328;9.640;2023-01-08T05:58:16;8.48;;;5.00;;
36829;SDS011;22767;47.328;9.640;2023-01-08T06:00:45;8.77;;;5.13;;
36829;SDS011;22767;47.328;9.640;2023-01-08T06:03:11;6.47;;;4.75;;
36829;SDS011;22767;47.328;9.640;2023-01-08T06:05:38;7.20;;;5.30;;
36829;SDS011;22767;47.328;9.640;2023-01-08T06:08:04;7.28;;;5.00;;
36829;SDS011;22767;47.328;9.640;2023-01-08T06:10:30;7.13;;;5.13;;
36829;SDS011;22767;47.328;9.640;2023-01-08T06:12:57;7.97;;;5.57;;
36829;SDS011;22767;47.328;9.640;2023-01-08T06:15:23;7.20;;;5.45;;
36829;SDS011;22767;47.328;9.640;2023-01-08T06:17:49;6.47;;;5.32;;
36829;SDS011;22767;47.328;9.640;2023-01-08T06:20:15;8.18;;;5.25;;
36829;SDS011;22767;47.328;9.640;2023-01-08T06:22:41;7.13;;;4.78;;
36829;SDS011;22767;47.328;9.640;2023-01-08T06:25:07;7.10;;;4.93;;
36829;SDS011;22767;47.328;9.640;2023-01-08T06:27:34;8.23;;;5.45;;
36829;SDS011;22767;47.328;9.640;2023-01-08T06:30:00;8.27;;;5.78;;
36829;SDS011;22767;47.328;9.640;2023-01-08T06:32:26;10.18;;;5.95;;
36829;SDS011;22767;47.328;9.640;2023-01-08T06:34:52;7.50;;;5.30;;
36829;SDS011;22767;47.328;9.640;2023-01-08T06:37:18;7.95;;;5.53;;
36829;SDS011;22767;47.328;9.640;2023-01-08T06:39:44;6.13;;;5.35;;
36829;SDS011;22767;47.328;9.640;2023-01-08T06:42:10;7.90;;;5.55;;
36829;SDS011;22767;47.328;9.640;2023-01-08T06:44:36;7.35;;;5.45;;
36829;SDS011;22767;47.328;9.640;2023-01-08T06:47:02;7.25;;;5.88;;
36829;SDS011;22767;47.328;9.640;2023-01-08T06:49:29;8.27;;;5.57;;
36829;SDS011;22767;47.328;9.640;2023-01-08T06:51:55;8.52;;;5.65;;
36829;SDS011;22767;47.328;9.640;2023-01-08T06:54:21;7.63;;;5.75;;
36829;SDS011;22767;47.328;9.640;2023-01-08T06:56:47;9.30;;;6.15;;
36829;SDS011;22767;47.328;9.640;2023-01-08T06:59:13;7.18;;;5.40;;
36829;SDS011;22767;47.328;9.640;2023-01-08T07:01:40;8.45;;;5.63;;
36829;SDS011;22767;47.328;9.640;2023-01-08T07:04:06;8.27;;;5.72;;
36829;SDS011;22767;47.328;9.640;2023-01-08T07:06:32;8.18;;;5.85;;
36829;SDS011;22767;47.328;9.640;2023-01-08T07:08:58;8.05;;;5.57;;
36829;SDS011;22767;47.328;9.640;2023-01-08T07:11:24;8.00;;;5.82;;
36829;SDS011;22767;47.328;9.640;2023-01-08T07:13:50;6.68;;;4.70;;
36829;SDS011;22767;47.328;9.640;2023-01-08T07:16:16;7.97;;;4.95;;
36829;SDS011;22767;47.328;9.640;2023-01-08T07:18:42;5.60;;;4.20;;
36829;SDS011;22767;47.328;9.640;2023-01-08T07:21:09;6.28;;;4.35;;
36829;SDS011;22767;47.328;9.640;2023-01-08T07:23:35;5.30;;;3.95;;
36829;SDS011;22767;47.328;9.640;2023-01-08T07:26:02;5.32;;;4.13;;
36829;SDS011;22767;47.328;9.640;2023-01-08T07:28:29;5.47;;;4.03;;
36829;SDS011;22767;47.328;9.640;2023-01-08T07:30:56;5.63;;;4.05;;
36829;SDS011;22767;47.328;9.640;2023-01-08T07:33:22;6.13;;;3.70;;
36829;SDS011;22767;47.328;9.640;2023-01-08T07:35:51;7.43;;;4.22;;
36829;SDS011;22767;47.328;9.640;2023-01-08T07:38:18;8.27;;;4.20;;
36829;SDS011;22767;47.328;9.640;2023-01-08T07:40:44;7.93;;;4.57;;
36829;SDS011;22767;47.328;9.640;2023-01-08T07:43:10;5.53;;;4.07;;
36829;SDS011;22767;47.328;9.640;2023-01-08T07:45:37;7.35;;;4.15;;
36829;SDS011;22767;47.328;9.640;2023-01-08T07:48:03;7.18;;;4.55;;
36829;SDS011;22767;47.328;9.640;2023-01-08T07:50:29;6.43;;;4.03;;
36829;SDS011;22767;47.328;9.640;2023-01-08T07:52:56;8.40;;;4.20;;
36829;SDS011;22767;47.328;9.640;2023-01-08T07:55:22;9.93;;;4.78;;
36829;SDS011;22767;47.328;9.640;2023-01-08T07:57:49;15.77;;;6.40;;
36829;SDS011;22767;47.328;9.640;2023-01-08T08:00:15;14.93;;;7.05;;
36829;SDS011;22767;47.328;9.640;2023-01-08T08:02:41;18.00;;;7.38;;
36829;SDS011;22767;47.328;9.640;2023-01-08T08:05:07;9.88;;;5.95;;
36829;SDS011;22767;47.328;9.640;2023-01-08T08:07:33;6.15;;;4.05;;
36829;SDS011;22767;47.328;9.640;2023-01-08T08:10:00;7.50;;;4.40;;
36829;SDS011;22767;47.328;9.640;2023-01-08T08:12:26;10.82;;;4.60;;
36829;SDS011;22767;47.328;9.640;2023-01-08T08:14:52;7.82;;;4.28;;
36829;SDS011;22767;47.328;9.640;2023-01-08T08:17:18;9.80;;;5.10;;
36829;SDS011;22767;47.328;9.640;2023-01-08T08:19:45;9.98;;;4.78;;
36829;SDS011;22767;47.328;9.640;2023-01-08T08:22:11;7.65;;;4.07;;
36829;SDS011;22767;47.328;9.640;2023-01-08T08:24:37;9.38;;;4.35;;
36829;SDS011;22767;47.328;9.640;2023-01-08T08:27:03;6.63;;;4.13;;
36829;SDS011;22767;47.328;9.640;2023-01-08T08:29:30;5.63;;;3.97;;
36829;SDS011;22767;47.328;9.640;2023-01-08T08:31:56;4.93;;;3.67;;
36829;SDS011;22767;47.328;9.640;2023-01-08T08:34:22;5.20;;;3.65;;
36829;SDS011;22767;47.328;9.640;2023-01-08T08:36:49;8.98;;;5.65;;
36829;SDS011;22767;47.328;9.640;2023-01-08T08:39:15;6.22;;;4.72;;
36829;SDS011;22767;47.328;9.640;2023-01-08T08:41:41;5.65;;;4.93;;
36829;SDS011;22767;47.328;9.640;2023-01-08T08:44:07;7.10;;;4.80;;
36829;SDS011;22767;47.328;9.640;2023-01-08T08:46:34;6.28;;;4.20;;
36829;SDS011;22767;47.328;9.640;2023-01-08T08:49:00;6.35;;;4.15;;
36829;SDS011;22767;47.328;9.640;2023-01-08T08:51:26;6.97;;;3.90;;
36829;SDS011;22767;47.328;9.640;2023-01-08T08:53:52;6.22;;;3.67;;
36829;SDS011;22767;47.328;9.640;2023-01-08T08:56:18;5.90;;;4.28;;
36829;SDS011;22767;47.328;9.640;2023-01-08T08:58:44;7.72;;;5.22;;
36829;SDS011;22767;47.328;9.640;2023-01-08T09:01:11;6.40;;;4.63;;
36829;SDS011;22767;47.328;9.640;2023-01-08T09:03:37;6.50;;;4.32;;
36829;SDS011;22767;47.328;9.640;2023-01-08T09:06:03;10.25;;;6.15;;
36829;SDS011;22767;47.328;9.640;2023-01-08T09:08:30;13.30;;;6.60;;
36829;SDS011;22767;47.328;9.640;2023-01-08T09:10:56;11.40;;;6.70;;
36829;SDS011;22767;47.328;9.640;2023-01-08T09:13:22;15.05;;;7.80;;
36829;SDS011;22767;47.328;9.640;2023-01-08T09:15:48;17.80;;;8.82;;
36829;SDS011;22767;47.328;9.640;2023-01-08T09:18:14;20.08;;;9.68;;
36829;SDS011;22767;47.328;9.640;2023-01-08T09:20:40;14.25;;;7.90;;
36829;SDS011;22767;47.328;9.640;2023-01-08T09:23:06;11.77;;;6.90;;
36829;SDS011;22767;47.328;9.640;2023-01-08T09:25:32;8.80;;;5.88;;
36829;SDS011;22767;47.328;9.640;2023-01-08T09:28:02;7.70;;;4.78;;
36829;SDS011;22767;47.328;9.640;2023-01-08T09:30:28;9.45;;;5.15;;
36829;SDS011;22767;47.328;9.640;2023-01-08T09:32:55;8.77;;;5.03;;
36829;SDS011;22767;47.328;9.640;2023-01-08T09:35:22;8.82;;;5.25;;
36829;SDS011;22767;47.328;9.640;2023-01-08T09:37:51;7.82;;;5.10;;
36829;SDS011;22767;47.328;9.640;2023-01-08T09:40:18;8.55;;;5.00;;
36829;SDS011;22767;47.328;9.640;2023-01-08T09:42:47;6.35;;;4.20;;
36829;SDS011;22767;47.328;9.640;2023-01-08T09:45:20;6.95;;;4.20;;
36829;SDS011;22767;47.328;9.640;2023-01-08T09:47:48;11.10;;;6.13;;
36829;SDS011;22767;47.328;9.640;2023-01-08T09:50:17;9.13;;;4.63;;
36829;SDS011;22767;47.328;9.640;2023-01-08T09:52:44;9.07;;;4.97;;
36829;SDS011;22767;47.328;9.640;2023-01-08T09:55:14;8.18;;;5.10;;
36829;SDS011;22767;47.328;9.640;2023-01-08T09:57:41;7.60;;;5.20;;
36829;SDS011;22767;47.328;9.640;2023-01-08T10:02:41;9.80;;;5.85;;
36829;SDS011;22767;47.328;9.640;2023-01-08T10:05:11;9.73;;;6.30;;
36829;SDS011;22767;47.328;9.640;2023-01-08T10:07:38;10.15;;;5.55;;
36829;SDS011;22767;47.328;9.640;2023-01-08T10:10:04;7.55;;;5.07;;
36829;SDS011;22767;47.328;9.640;2023-01-08T10:12:31;7.28;;;4.95;;
36829;SDS011;22767;47.328;9.640;2023-01-08T10:14:59;7.22;;;4.13;;
36829;SDS011;22767;47.328;9.640;2023-01-08T10:20:02;7.32;;;4.65;;
36829;SDS011;22767;47.328;9.640;2023-01-08T10:22:30;7.45;;;4.22;;
36829;SDS011;22767;47.328;9.640;2023-01-08T10:25:05;7.00;;;4.57;;
36829;SDS011;22767;47.328;9.640;2023-01-08T10:27:35;6.53;;;4.43;;
36829;SDS011;22767;47.328;9.640;2023-01-08T10:30:05;5.70;;;4.40;;
36829;SDS011;22767;47.328;9.640;2023-01-08T10:32:32;6.25;;;4.90;;
36829;SDS011;22767;47.328;9.640;2023-01-08T10:35:02;7.22;;;4.70;;
36829;SDS011;22767;47.328;9.640;2023-01-08T10:37:30;6.32;;;4.80;;
36829;SDS011;22767;47.328;9.640;2023-01-08T10:40:16;7.47;;;4.90;;
36829;SDS011;22767;47.328;9.640;2023-01-08T10:42:42;7.47;;;4.95;;
36829;SDS011;22767;47.328;9.640;2023-01-08T10:45:25;7.57;;;5.20;;
36829;SDS011;22767;47.328;9.640;2023-01-08T10:47:54;6.63;;;4.65;;
36829;SDS011;22767;47.328;9.640;2023-01-08T10:50:23;7.45;;;5.00;;
36829;SDS011;22767;47.328;9.640;2023-01-08T10:52:51;7.38;;;5.30;;
36829;SDS011;22767;47.328;9.640;2023-01-08T10:58:00;10.20;;;5.35;;
36829;SDS011;22767;47.328;9.640;2023-01-08T11:00:30;8.25;;;5.38;;
36829;SDS011;22767;47.328;9.640;2023-01-08T11:02:58;6.78;;;4.88;;
36829;SDS011;22767;47.328;9.640;2023-01-08T11:05:32;8.88;;;4.95;;
36829;SDS011;22767;47.328;9.640;2023-01-08T11:07:59;7.20;;;5.05;;
36829;SDS011;22767;47.328;9.640;2023-01-08T11:10:26;6.85;;;4.85;;
36829;SDS011;22767;47.328;9.640;2023-01-08T11:12:56;8.88;;;5.75;;
36829;SDS011;22767;47.328;9.640;2023-01-08T11:15:30;6.88;;;5.13;;
36829;SDS011;22767;47.328;9.640;2023-01-08T11:18:04;6.85;;;5.00;;
36829;SDS011;22767;47.328;9.640;2023-01-08T11:20:30;7.35;;;5.20;;
36829;SDS011;22767;47.328;9.640;2023-01-08T11:23:17;10.10;;;5.43;;
36829;SDS011;22767;47.328;9.640;2023-01-08T11:25:46;7.38;;;5.28;;
36829;SDS011;22767;47.328;9.640;2023-01-08T11:28:14;8.10;;;6.20;;
36829;SDS011;22767;47.328;9.640;2023-01-08T11:30:43;9.20;;;5.57;;
36829;SDS011;22767;47.328;9.640;2023-01-08T11:35:42;7.60;;;5.13;;
36829;SDS011;22767;47.328;9.640;2023-01-08T11:38:11;9.45;;;6.00;;
36829;SDS011;22767;47.328;9.640;2023-01-08T11:53:25;7.30;;;5.75;;
36829;SDS011;22767;47.328;9.640;2023-01-08T11:56:03;12.70;;;7.60;;
36829;SDS011;22767;47.328;9.640;2023-01-08T12:03:59;10.48;;;6.75;;
36829;SDS011;22767;47.328;9.640;2023-01-08T12:06:30;8.77;;;6.60;;
36829;SDS011;22767;47.328;9.640;2023-01-08T12:09:22;8.23;;;6.47;;
36829;SDS011;22767;47.328;9.640;2023-01-08T12:24:55;7.95;;;5.85;;
36829;SDS011;22767;47.328;9.640;2023-01-08T12:32:57;7.65;;;5.75;;
36829;SDS011;22767;47.328;9.640;2023-01-08T12:35:27;7.72;;;5.65;;
36829;SDS011;22767;47.328;9.640;2023-01-08T12:37:58;7.82;;;5.63;;
36829;SDS011;22767;47.328;9.640;2023-01-08T12:42:53;8.18;;;5.85;;
36829;SDS011;22767;47.328;9.640;2023-01-08T12:45:21;9.05;;;6.40;;
36829;SDS011;22767;47.328;9.640;2023-01-08T12:47:49;8.02;;;6.35;;
36829;SDS011;22767;47.328;9.640;2023-01-08T12:55:57;10.50;;;6.72;;
36829;SDS011;22767;47.328;9.640;2023-01-08T12:58:41;12.32;;;7.70;;
36829;SDS011;22767;47.328;9.640;2023-01-08T13:03:53;10.73;;;7.80;;
36829;SDS011;22767;47.328;9.640;2023-01-08T13:06:19;11.68;;;7.55;;
36829;SDS011;22767;47.328;9.640;2023-01-08T13:08:50;9.27;;;7.07;;
36829;SDS011;22767;47.328;9.640;2023-01-08T13:11:24;8.95;;;6.88;;
36829;SDS011;22767;47.328;9.640;2023-01-08T13:16:47;10.10;;;6.85;;
36829;SDS011;22767;47.328;9.640;2023-01-08T13:19:25;10.23;;;7.32;;
36829;SDS011;22767;47.328;9.640;2023-01-08T13:21:53;13.00;;;7.53;;
36829;SDS011;22767;47.328;9.640;2023-01-08T13:29:44;9.90;;;7.57;;
36829;SDS011;22767;47.328;9.640;2023-01-08T13:37:43;11.00;;;6.85;;
36829;SDS011;22767;47.328;9.640;2023-01-08T13:42:57;13.48;;;7.75;;
36829;SDS011;22767;47.328;9.640;2023-01-08T13:45:25;10.20;;;6.72;;
36829;SDS011;22767;47.328;9.640;2023-01-08T13:47:54;10.48;;;6.68;;
36829;SDS011;22767;47.328;9.640;2023-01-08T13:50:21;8.88;;;6.70;;
36829;SDS011;22767;47.328;9.640;2023-01-08T13:52:58;10.48;;;6.57;;
36829;SDS011;22767;47.328;9.640;2023-01-08T13:55:32;9.02;;;6.78;;
36829;SDS011;22767;47.328;9.640;2023-01-08T13:58:18;11.63;;;6.93;;
36829;SDS011;22767;47.328;9.640;2023-01-08T14:00:46;8.82;;;6.45;;
36829;SDS011;22767;47.328;9.640;2023-01-08T14:03:21;9.52;;;6.40;;
36829;SDS011;22767;47.328;9.640;2023-01-08T14:05:47;9.65;;;7.30;;
36829;SDS011;22767;47.328;9.640;2023-01-08T14:08:24;9.60;;;7.05;;
36829;SDS011;22767;47.328;9.640;2023-01-08T14:10:54;8.35;;;6.72;;
36829;SDS011;22767;47.328;9.640;2023-01-08T14:13:21;8.85;;;5.95;;
36829;SDS011;22767;47.328;9.640;2023-01-08T14:15:51;12.30;;;6.00;;
36829;SDS011;22767;47.328;9.640;2023-01-08T14:18:17;9.65;;;6.45;;
36829;SDS011;22767;47.328;9.640;2023-01-08T14:20:44;9.27;;;6.32;;
36829;SDS011;22767;47.328;9.640;2023-01-08T14:23:17;8.00;;;5.95;;
36829;SDS011;22767;47.328;9.640;2023-01-08T14:25:46;9.35;;;6.32;;
36829;SDS011;22767;47.328;9.640;2023-01-08T14:28:20;9.30;;;6.32;;
36829;SDS011;22767;47.328;9.640;2023-01-08T14:30:50;7.90;;;6.40;;
36829;SDS011;22767;47.328;9.640;2023-01-08T14:33:18;9.07;;;6.15;;
36829;SDS011;22767;47.328;9.640;2023-01-08T14:35:45;9.48;;;6.97;;
36829;SDS011;22767;47.328;9.640;2023-01-08T14:38:12;11.90;;;7.15;;
36829;SDS011;22767;47.328;9.640;2023-01-08T14:40:40;10.88;;;7.63;;
36829;SDS011;22767;47.328;9.640;2023-01-08T14:43:08;14.20;;;8.32;;
36829;SDS011;22767;47.328;9.640;2023-01-08T14:45:36;11.80;;;8.00;;
36829;SDS011;22767;47.328;9.640;2023-01-08T14:48:11;12.80;;;8.00;;
36829;SDS011;22767;47.328;9.640;2023-01-08T14:50:39;12.25;;;8.20;;
36829;SDS011;22767;47.328;9.640;2023-01-08T14:53:14;12.77;;;8.98;;
36829;SDS011;22767;47.328;9.640;2023-01-08T14:55:44;14.75;;;9.93;;
36829;SDS011;22767;47.328;9.640;2023-01-08T14:58:19;15.48;;;9.25;;
36829;SDS011;22767;47.328;9.640;2023-01-08T15:00:48;13.13;;;9.75;;
36829;SDS011;22767;47.328;9.640;2023-01-08T15:06:11;11.80;;;9.00;;
36829;SDS011;22767;47.328;9.640;2023-01-08T15:08:47;11.05;;;8.63;;
36829;SDS011;22767;47.328;9.640;2023-01-08T15:13:43;12.30;;;8.55;;
36829;SDS011;22767;47.328;9.640;2023-01-08T15:16:26;14.93;;;9.43;;
36829;SDS011;22767;47.328;9.640;2023-01-08T15:19:12;12.93;;;9.15;;
36829;SDS011;22767;47.328;9.640;2023-01-08T15:21:48;11.88;;;8.93;;
36829;SDS011;22767;47.328;9.640;2023-01-08T15:24:26;12.82;;;9.32;;
36829;SDS011;22767;47.328;9.640;2023-01-08T15:26:54;14.50;;;9.15;;
36829;SDS011;22767;47.328;9.640;2023-01-08T15:29:28;15.38;;;9.45;;
36829;SDS011;22767;47.328;9.640;2023-01-08T15:34:38;14.52;;;9.02;;
36829;SDS011;22767;47.328;9.640;2023-01-08T15:37:04;13.20;;;8.65;;
36829;SDS011;22767;47.328;9.640;2023-01-08T15:39:31;11.45;;;8.40;;
36829;SDS011;22767;47.328;9.640;2023-01-08T15:42:00;14.13;;;8.20;;
36829;SDS011;22767;47.328;9.640;2023-01-08T15:44:46;11.32;;;8.05;;
36829;SDS011;22767;47.328;9.640;2023-01-08T15:47:12;14.13;;;8.55;;
36829;SDS011;22767;47.328;9.640;2023-01-08T15:49:38;13.38;;;8.68;;
36829;SDS011;22767;47.328;9.640;2023-01-08T15:52:05;12.30;;;7.70;;
36829;SDS011;22767;47.328;9.640;2023-01-08T15:54:31;11.02;;;8.10;;
36829;SDS011;22767;47.328;9.640;2023-01-08T15:56:57;11.48;;;8.48;;
36829;SDS011;22767;47.328;9.640;2023-01-08T15:59:23;12.82;;;8.43;;
36829;SDS011;22767;47.328;9.640;2023-01-08T16:01:50;13.43;;;8.80;;
36829;SDS011;22767;47.328;9.640;2023-01-08T16:04:17;13.00;;;8.68;;
36829;SDS011;22767;47.328;9.640;2023-01-08T16:06:43;12.68;;;8.73;;
36829;SDS011;22767;47.328;9.640;2023-01-08T16:09:09;12.02;;;8.45;;
36829;SDS011;22767;47.328;9.640;2023-01-08T16:11:35;10.70;;;7.82;;
36829;SDS011;22767;47.328;9.640;2023-01-08T16:14:01;13.73;;;8.15;;
36829;SDS011;22767;47.328;9.640;2023-01-08T16:16:28;11.32;;;8.55;;
36829;SDS011;22767;47.328;9.640;2023-01-08T16:18:54;12.32;;;8.90;;